createdAt,value
2022-09-02T00:01:27.584Z,1.90
2022-09-02T00:04:05.511Z,1.83
2022-09-02T00:06:33.998Z,2.15
2022-09-02T00:09:01.320Z,2.03
2022-09-02T00:11:31.546Z,2.08
2022-09-02T00:14:02.869Z,2.03
2022-09-02T00:16:31.936Z,2.10
2022-09-02T00:19:00.474Z,2.40
2022-09-02T00:21:27.732Z,2.25
2022-09-02T00:23:54.776Z,2.00
2022-09-02T00:26:22.894Z,2.42
2022-09-02T00:28:55.972Z,2.22
2022-09-02T00:31:27.653Z,2.15
2022-09-02T00:33:55.809Z,2.10
2022-09-02T00:36:22.790Z,2.13
2022-09-02T00:38:49.949Z,2.40
2022-09-02T00:41:21.468Z,2.28
2022-09-02T00:43:57.626Z,2.08
2022-09-02T00:46:28.146Z,1.98
2022-09-02T00:49:24.927Z,2.25
2022-09-02T00:52:06.054Z,2.10
2022-09-02T00:54:37.679Z,1.73
2022-09-02T00:57:19.546Z,2.17
2022-09-02T00:59:59.414Z,2.33
2022-09-02T01:02:28.815Z,2.20
2022-09-02T01:04:56.772Z,1.70
2022-09-02T01:07:27.365Z,1.95
2022-09-02T01:09:56.007Z,2.17
2022-09-02T01:12:24.553Z,2.53
2022-09-02T01:14:51.462Z,2.75
2022-09-02T01:17:20.272Z,2.10
2022-09-02T01:19:54.500Z,2.40
2022-09-02T01:22:27.345Z,2.15
2022-09-02T01:24:59.938Z,2.20
2022-09-02T01:27:27.548Z,1.92
2022-09-02T01:30:00.175Z,2.10
2022-09-02T01:32:29.994Z,1.85
2022-09-02T01:34:57.855Z,2.10
2022-09-02T01:37:25.550Z,2.10
2022-09-02T01:39:52.998Z,2.03
2022-09-02T01:42:21.330Z,2.17
2022-09-02T01:44:48.836Z,2.13
2022-09-02T01:47:21.555Z,2.03
2022-09-02T01:49:49.823Z,2.00
2022-09-02T01:52:17.836Z,2.25
2022-09-02T01:54:44.728Z,2.05
2022-09-02T01:57:13.162Z,2.20
2022-09-02T01:59:40.101Z,2.35
2022-09-02T02:02:07.758Z,2.20
2022-09-02T02:04:35.393Z,1.90
2022-09-02T02:07:03.371Z,1.90
2022-09-02T02:09:30.317Z,2.08
2022-09-02T02:11:57.287Z,2.08
2022-09-02T02:14:24.438Z,2.15
2022-09-02T02:16:51.434Z,2.58
2022-09-02T02:19:18.461Z,2.10
2022-09-02T02:21:45.508Z,2.00
2022-09-02T02:24:12.632Z,2.20
2022-09-02T02:26:39.440Z,2.22
2022-09-02T02:29:06.571Z,2.30
2022-09-02T02:31:33.649Z,2.20
2022-09-02T02:34:01.819Z,2.20
2022-09-02T02:36:28.755Z,2.58
2022-09-02T02:38:56.211Z,2.38
2022-09-02T02:41:23.565Z,1.92
2022-09-02T02:43:50.512Z,2.30
2022-09-02T02:46:18.430Z,2.20
2022-09-02T02:48:45.978Z,2.15
2022-09-02T02:51:12.908Z,2.40
2022-09-02T02:53:39.793Z,2.28
2022-09-02T02:56:07.991Z,2.28
2022-09-02T02:58:35.347Z,2.10
2022-09-02T03:01:02.283Z,1.92
2022-09-02T03:03:29.687Z,2.40
2022-09-02T03:05:57.215Z,2.08
2022-09-02T03:08:26.754Z,2.42
2022-09-02T03:10:56.043Z,2.13
2022-09-02T03:13:24.543Z,2.30
2022-09-02T03:15:52.320Z,2.20
2022-09-02T03:18:21.021Z,2.28
2022-09-02T03:20:48.078Z,2.13
2022-09-02T03:23:15.160Z,2.60
2022-09-02T03:25:44.448Z,2.40
2022-09-02T03:28:12.684Z,2.65
2022-09-02T03:30:41.723Z,2.22
2022-09-02T03:33:08.993Z,2.72
2022-09-02T03:35:42.225Z,2.50
2022-09-02T03:38:10.960Z,2.50
2022-09-02T03:40:38.577Z,2.53
2022-09-02T03:43:05.558Z,2.72
2022-09-02T03:45:32.542Z,2.50
2022-09-02T03:47:59.959Z,2.63
2022-09-02T03:50:36.435Z,3.00
2022-09-02T03:53:04.554Z,2.47
2022-09-02T03:55:32.485Z,2.28
2022-09-02T03:57:59.699Z,2.65
2022-09-02T04:00:31.967Z,2.50
2022-09-02T04:03:01.500Z,2.40
2022-09-02T04:05:29.095Z,2.63
2022-09-02T04:07:57.340Z,2.88
2022-09-02T04:10:25.354Z,2.90
2022-09-02T04:12:52.954Z,2.80
2022-09-02T04:15:21.330Z,2.90
2022-09-02T04:19:03.958Z,2.70
2022-09-02T04:21:35.062Z,2.92
2022-09-02T04:24:02.005Z,3.10
2022-09-02T04:26:29.179Z,3.00
2022-09-02T04:28:56.357Z,2.95
2022-09-02T04:31:25.842Z,3.20
2022-09-02T04:33:53.614Z,3.10
2022-09-02T04:36:22.343Z,3.33
2022-09-02T04:38:51.944Z,3.30
2022-09-02T04:41:25.273Z,3.05
2022-09-02T04:43:55.176Z,3.30
2022-09-02T04:46:34.370Z,3.38
2022-09-02T04:49:03.023Z,3.65
2022-09-02T04:51:30.286Z,4.80
2022-09-02T04:53:57.477Z,4.03
2022-09-02T04:56:28.606Z,4.03
2022-09-02T04:58:56.957Z,3.75
2022-09-02T05:01:28.796Z,3.33
2022-09-02T05:03:56.035Z,3.03
2022-09-02T05:06:27.405Z,3.40
2022-09-02T05:08:57.430Z,3.08
2022-09-02T05:11:28.568Z,3.10
2022-09-02T05:13:59.185Z,3.58
2022-09-02T05:16:30.498Z,3.10
2022-09-02T05:18:58.454Z,3.20
2022-09-02T05:21:25.280Z,3.10
2022-09-02T05:23:54.732Z,3.60
2022-09-02T05:26:22.835Z,3.22
2022-09-02T05:28:51.192Z,3.35
2022-09-02T05:31:21.027Z,2.88
2022-09-02T05:33:48.771Z,2.78
2022-09-02T05:36:21.303Z,3.25
2022-09-02T05:38:49.632Z,3.65
2022-09-02T05:41:23.493Z,3.53
2022-09-02T05:43:53.985Z,3.20
2022-09-02T05:46:24.483Z,3.70
2022-09-02T05:49:17.989Z,3.03
2022-09-02T05:51:49.995Z,3.42
2022-09-02T05:54:49.643Z,3.47
2022-09-02T05:57:18.089Z,3.50
2022-09-02T05:59:46.033Z,3.17
2022-09-02T06:02:15.148Z,3.72
2022-09-02T06:04:47.106Z,3.20
2022-09-02T06:07:16.142Z,3.85
2022-09-02T06:09:44.683Z,3.70
2022-09-02T06:12:15.202Z,3.55
2022-09-02T06:14:42.885Z,3.28
2022-09-02T06:17:10.124Z,3.10
2022-09-02T06:19:37.308Z,3.30
2022-09-02T06:22:05.972Z,3.03
2022-09-02T06:24:33.487Z,3.15
2022-09-02T06:27:01.835Z,3.30
2022-09-02T06:29:29.835Z,3.58
2022-09-02T06:31:56.678Z,3.30
2022-09-02T06:34:27.107Z,3.13
2022-09-02T06:36:55.444Z,3.20
2022-09-02T06:39:25.806Z,3.40
2022-09-02T06:41:53.075Z,3.28
2022-09-02T06:44:21.737Z,3.22
2022-09-02T06:46:57.228Z,3.05
2022-09-02T06:49:25.943Z,2.80
2022-09-02T06:51:55.623Z,3.00
2022-09-02T06:54:23.864Z,3.10
2022-09-02T06:56:52.082Z,3.20
2022-09-02T06:59:20.823Z,2.78
2022-09-02T07:01:48.346Z,2.70
2022-09-02T07:04:35.361Z,2.92
2022-09-02T07:07:06.355Z,2.85
2022-09-02T07:09:33.289Z,2.72
2022-09-02T07:12:04.938Z,3.03
2022-09-02T07:14:38.690Z,2.80
2022-09-02T07:17:06.373Z,2.85
2022-09-02T07:19:33.956Z,2.60
2022-09-02T07:22:03.087Z,3.60
2022-09-02T07:24:29.962Z,3.20
2022-09-02T07:26:56.877Z,3.30
2022-09-02T07:29:24.222Z,2.72
2022-09-02T07:31:51.572Z,3.00
2022-09-02T07:34:19.271Z,2.13
2022-09-02T07:36:48.598Z,2.10
2022-09-02T07:39:19.586Z,2.45
2022-09-02T07:41:51.273Z,2.40
2022-09-02T07:44:21.806Z,2.20
2022-09-02T07:46:48.773Z,2.55
2022-09-02T07:49:18.910Z,2.53
2022-09-02T07:51:49.937Z,2.40
2022-09-02T07:54:21.289Z,2.60
2022-09-02T07:56:49.782Z,2.55
2022-09-02T07:59:16.966Z,2.58
2022-09-02T08:01:44.818Z,2.17
2022-09-02T08:04:13.430Z,2.60
2022-09-02T08:06:40.983Z,2.70
2022-09-02T08:09:11.312Z,1.98
2022-09-02T08:11:42.277Z,2.70
2022-09-02T08:14:12.918Z,2.80
2022-09-02T08:16:40.875Z,2.55
2022-09-02T08:19:08.950Z,2.38
2022-09-02T08:21:36.499Z,1.80
2022-09-02T08:24:04.083Z,1.75
2022-09-02T08:26:32.030Z,2.00
2022-09-02T08:28:58.931Z,1.70
2022-09-02T08:31:26.217Z,1.85
2022-09-02T08:33:53.078Z,1.95
2022-09-02T08:36:21.059Z,1.75
2022-09-02T08:38:48.042Z,1.38
2022-09-02T08:41:23.400Z,1.75
2022-09-02T08:43:53.352Z,1.55
2022-09-02T08:46:25.894Z,1.60
2022-09-02T08:48:54.137Z,1.88
2022-09-02T08:51:37.537Z,1.75
2022-09-02T08:54:28.093Z,1.50
2022-09-02T08:56:59.049Z,1.40
2022-09-02T08:59:28.559Z,1.30
2022-09-02T09:02:36.361Z,1.80
2022-09-02T09:05:42.052Z,1.40
2022-09-02T09:08:31.380Z,1.27
2022-09-02T09:11:29.759Z,1.00
2022-09-02T09:14:29.434Z,1.17
2022-09-02T09:17:06.820Z,1.20
2022-09-02T09:19:55.290Z,1.27
2022-09-02T09:22:37.367Z,1.30
2022-09-02T09:25:12.872Z,1.23
2022-09-02T09:27:40.907Z,1.23
2022-09-02T09:30:14.438Z,1.13
2022-09-02T09:32:52.923Z,1.13
2022-09-02T09:35:19.806Z,1.02
2022-09-02T09:37:51.897Z,1.13
2022-09-02T09:40:30.978Z,1.27
2022-09-02T09:43:14.917Z,0.85
2022-09-02T09:45:48.277Z,0.98
2022-09-02T09:48:38.407Z,0.80
2022-09-02T09:51:06.352Z,0.88
2022-09-02T09:53:37.418Z,1.23
2022-09-02T09:56:05.583Z,0.95
2022-09-02T09:58:41.909Z,0.80
2022-09-02T10:01:22.348Z,0.90
2022-09-02T10:04:20.826Z,0.77
2022-09-02T10:06:53.358Z,1.05
2022-09-02T10:09:20.630Z,0.90
2022-09-02T10:12:05.573Z,0.88
2022-09-02T10:14:46.498Z,1.00
2022-09-02T10:17:36.223Z,1.10
2022-09-02T10:20:53.140Z,0.80
2022-09-02T10:24:05.543Z,0.98
2022-09-02T10:26:43.308Z,0.85
2022-09-02T10:29:41.178Z,1.00
2022-09-02T10:32:46.996Z,1.10
2022-09-02T10:35:48.143Z,1.13
2022-09-02T10:38:37.902Z,1.10
2022-09-02T10:41:20.600Z,0.90
2022-09-02T10:44:06.449Z,0.85
2022-09-02T10:46:55.423Z,1.10
2022-09-02T10:50:02.837Z,1.02
2022-09-02T10:53:17.669Z,0.93
2022-09-02T10:56:23.630Z,0.80
2022-09-02T10:59:09.423Z,1.10
2022-09-02T11:01:46.979Z,1.13
2022-09-02T11:04:39.335Z,1.58
2022-09-02T11:07:14.833Z,1.10
2022-09-02T11:09:46.208Z,0.90
2022-09-02T11:12:27.359Z,1.08
2022-09-02T11:15:22.063Z,1.10
2022-09-02T11:18:03.813Z,0.90
2022-09-02T11:21:33.115Z,0.95
2022-09-02T11:24:11.322Z,0.90
2022-09-02T11:26:49.781Z,0.80
2022-09-02T11:29:36.975Z,0.90
2022-09-02T11:32:32.054Z,0.90
2022-09-02T11:35:07.487Z,0.90
2022-09-02T11:37:53.514Z,1.10
2022-09-02T11:44:21.481Z,0.90
2022-09-02T11:47:09.233Z,1.10
2022-09-02T11:50:05.035Z,0.90
2022-09-02T11:53:03.466Z,1.13
2022-09-02T11:55:56.676Z,0.80
2022-09-02T11:58:53.008Z,1.08
2022-09-02T12:01:33.306Z,0.93
2022-09-02T12:07:09.426Z,1.02
2022-09-02T12:09:56.897Z,1.13
2022-09-02T12:12:39.793Z,0.90
2022-09-02T12:15:07.695Z,0.95
2022-09-02T12:17:38.679Z,0.98
2022-09-02T12:20:10.467Z,0.70
2022-09-02T12:22:41.829Z,0.85
2022-09-02T12:25:28.352Z,0.93
2022-09-02T12:52:48.466Z,1.10
2022-09-02T12:55:33.381Z,1.30
2022-09-02T12:58:23.149Z,1.08
2022-09-02T13:00:50.209Z,0.88
2022-09-02T13:03:29.630Z,1.25
2022-09-02T13:06:12.750Z,1.10
2022-09-02T13:09:11.402Z,1.10
2022-09-02T13:12:17.099Z,1.00
2022-09-02T13:15:14.662Z,1.40
2022-09-02T13:18:16.300Z,1.05
2022-09-02T13:21:04.304Z,1.08
2022-09-02T13:24:11.533Z,1.05
2022-09-02T13:27:03.000Z,1.05
2022-09-02T13:30:03.834Z,1.30
2022-09-02T13:32:33.152Z,1.00
2022-09-02T13:35:07.720Z,1.08
2022-09-02T13:37:39.784Z,1.10
2022-09-02T13:40:20.626Z,1.10
2022-09-02T13:43:04.009Z,1.23
2022-09-02T13:48:32.546Z,1.10
2022-09-02T13:51:14.609Z,1.15
2022-09-02T13:54:05.657Z,1.08
2022-09-02T13:56:35.409Z,0.90
2022-09-02T13:59:02.194Z,1.45
2022-09-02T14:01:40.008Z,0.98
2022-09-02T14:04:14.246Z,0.80
2022-09-02T14:06:47.810Z,1.10
2022-09-02T14:09:29.638Z,1.17
2022-09-02T14:11:58.830Z,1.10
2022-09-02T14:14:26.924Z,1.00
2022-09-02T14:17:26.881Z,1.15
2022-09-02T14:20:29.441Z,1.15
2022-09-02T14:22:59.002Z,0.90
2022-09-02T14:25:30.242Z,1.20
2022-09-02T14:28:00.990Z,1.23
2022-09-02T14:30:38.935Z,1.30
2022-09-02T14:33:43.491Z,1.15
2022-09-02T14:36:37.689Z,1.17
2022-09-02T14:39:17.046Z,1.10
2022-09-02T14:41:54.204Z,1.10
2022-09-02T14:44:33.967Z,0.98
2022-09-02T14:47:05.743Z,1.10
2022-09-02T14:49:42.415Z,0.98
2022-09-02T14:52:22.671Z,1.00
2022-09-02T14:54:53.007Z,1.00
2022-09-02T14:57:32.986Z,1.10
2022-09-02T15:00:06.313Z,0.80
2022-09-02T15:05:07.995Z,0.90
2022-09-02T15:07:35.053Z,1.23
2022-09-02T15:10:02.375Z,1.00
2022-09-02T15:12:33.534Z,1.08
2022-09-02T15:15:01.125Z,0.90
2022-09-02T15:17:29.460Z,0.75
2022-09-02T15:19:56.734Z,1.05
2022-09-02T15:22:23.982Z,1.00
2022-09-02T15:24:53.054Z,1.20
2022-09-02T15:27:21.725Z,1.05
2022-09-02T15:29:49.356Z,0.90
2022-09-02T15:32:17.243Z,1.23
2022-09-02T15:34:52.146Z,0.90
2022-09-02T15:37:19.289Z,0.95
2022-09-02T15:39:46.201Z,1.00
2022-09-02T15:42:13.122Z,0.90
2022-09-02T15:44:40.730Z,0.88
2022-09-02T15:47:07.742Z,1.10
2022-09-02T15:49:34.762Z,0.80
2022-09-02T15:52:02.977Z,1.13
2022-09-02T15:54:32.070Z,1.20
2022-09-02T15:56:59.427Z,0.95
2022-09-02T15:59:28.049Z,1.00
2022-09-02T16:01:59.099Z,1.20
2022-09-02T16:04:27.431Z,1.00
2022-09-02T16:06:54.435Z,1.00
2022-09-02T16:09:22.349Z,0.98
2022-09-02T16:11:52.548Z,1.02
2022-09-02T16:14:21.554Z,0.95
2022-09-02T16:16:50.854Z,1.10
2022-09-02T16:19:23.714Z,0.85
2022-09-02T16:21:51.961Z,1.20
2022-09-02T16:24:21.534Z,1.10
2022-09-02T16:26:50.055Z,0.85
2022-09-02T16:29:18.016Z,0.90
2022-09-02T16:32:02.291Z,1.30
2022-09-02T16:34:38.295Z,1.30
2022-09-02T16:37:06.136Z,0.70
2022-09-02T16:39:33.092Z,0.88
2022-09-02T16:42:04.163Z,1.20
2022-09-02T16:44:33.892Z,1.17
2022-09-02T16:47:00.907Z,0.98
2022-09-02T16:49:27.835Z,0.82
2022-09-02T16:51:58.422Z,0.98
2022-09-02T16:54:31.249Z,1.00
2022-09-02T16:56:59.067Z,1.23
2022-09-02T16:59:25.903Z,1.00
2022-09-02T17:01:52.789Z,0.80
2022-09-02T17:04:19.684Z,1.10
2022-09-02T17:06:46.489Z,1.30
2022-09-02T17:09:13.405Z,1.00
2022-09-02T17:11:41.345Z,1.05
2022-09-02T17:14:18.710Z,1.13
2022-09-02T17:16:49.219Z,1.17
2022-09-02T17:19:21.803Z,1.30
2022-09-02T17:24:21.882Z,1.30
2022-09-02T17:26:51.837Z,1.40
2022-09-02T17:29:47.654Z,1.50
2022-09-02T17:32:08.750Z,1.50
2022-09-02T17:34:36.482Z,1.42
2022-09-02T17:37:05.210Z,1.20
2022-09-02T17:39:33.949Z,1.70
2022-09-02T17:42:02.289Z,2.50
2022-09-02T17:44:34.923Z,2.05
2022-09-02T17:47:05.864Z,1.80
2022-09-02T17:49:36.440Z,1.30
2022-09-02T17:52:08.250Z,1.10
2022-09-02T17:54:37.559Z,1.20
2022-09-02T17:57:32.532Z,1.10
2022-09-02T18:00:05.900Z,1.30
2022-09-02T18:03:13.895Z,1.65
2022-09-02T18:06:11.149Z,1.10
2022-09-02T18:09:01.049Z,1.20
2022-09-02T18:11:29.552Z,1.00
2022-09-02T18:14:12.122Z,1.10
2022-09-02T18:17:03.596Z,1.27
2022-09-02T18:19:48.312Z,1.00
2022-09-02T18:22:55.472Z,1.42
2022-09-02T18:26:01.513Z,1.40
2022-09-02T18:28:47.654Z,1.50
2022-09-02T18:31:56.712Z,1.30
2022-09-02T18:35:20.202Z,1.30
2022-09-02T18:38:05.966Z,1.42
2022-09-02T18:41:01.564Z,1.67
2022-09-02T18:44:07.666Z,1.40
2022-09-02T18:46:59.608Z,1.45
2022-09-02T18:49:30.472Z,1.10
2022-09-02T18:52:00.938Z,1.50
2022-09-02T18:54:37.738Z,1.55
2022-09-02T18:57:09.168Z,1.63
2022-09-02T18:59:52.128Z,1.38
2022-09-02T19:02:31.009Z,1.13
2022-09-02T19:05:01.343Z,1.77
2022-09-02T19:07:59.224Z,1.20
2022-09-02T19:10:30.700Z,1.52
2022-09-02T19:13:02.408Z,1.50
2022-09-02T19:15:29.312Z,1.50
2022-09-02T19:17:56.343Z,1.83
2022-09-02T19:20:23.933Z,1.55
2022-09-02T19:22:54.021Z,1.70
2022-09-02T19:25:26.009Z,1.45
2022-09-02T19:27:55.172Z,1.70
2022-09-02T19:30:23.318Z,1.98
2022-09-02T19:32:55.133Z,2.20
2022-09-02T19:35:28.255Z,2.63
2022-09-02T19:41:04.198Z,3.50
2022-09-02T19:43:31.502Z,2.42
2022-09-02T19:45:59.818Z,2.20
2022-09-02T19:48:26.744Z,2.38
2022-09-02T19:50:53.629Z,2.30
2022-09-02T19:53:27.865Z,1.85
2022-09-02T19:55:54.662Z,1.63
2022-09-02T19:58:21.931Z,1.90
2022-09-02T20:00:48.965Z,1.63
2022-09-02T20:03:16.297Z,1.50
2022-09-02T20:05:43.137Z,1.67
2022-09-02T20:08:10.055Z,1.58
2022-09-02T20:10:39.326Z,1.65
2022-09-02T20:13:09.287Z,1.65
2022-09-02T20:15:39.611Z,1.80
2022-09-02T20:18:13.745Z,1.70
2022-09-02T20:20:46.556Z,1.65
2022-09-02T20:23:17.211Z,2.00
2022-09-02T20:26:23.819Z,1.85
2022-09-02T20:29:25.890Z,1.80
2022-09-02T20:32:51.646Z,1.70
2022-09-02T20:35:52.218Z,1.92
2022-09-02T20:38:51.292Z,1.70
2022-09-02T20:41:25.042Z,1.90
2022-09-02T20:44:13.587Z,2.30
2022-09-02T20:47:28.713Z,1.63
2022-09-02T20:50:29.215Z,1.90
2022-09-02T20:53:07.884Z,1.80
2022-09-02T20:55:54.534Z,1.85
2022-09-02T20:58:55.214Z,2.00
2022-09-02T21:01:34.545Z,1.90
2022-09-02T21:04:34.716Z,2.03
2022-09-02T21:07:13.749Z,1.80
2022-09-02T21:10:08.800Z,1.80
2022-09-02T21:12:40.811Z,2.67
2022-09-02T21:15:24.563Z,2.30
2022-09-02T21:18:34.846Z,2.20
2022-09-02T21:21:28.345Z,2.28
2022-09-02T21:24:15.706Z,2.03
2022-09-02T21:26:56.807Z,2.15
2022-09-02T21:29:46.986Z,2.60
2022-09-02T21:32:42.940Z,2.17
2022-09-02T21:35:16.160Z,2.20
2022-09-02T21:37:45.268Z,2.40
2022-09-02T21:40:25.522Z,2.50
2022-09-02T21:43:32.656Z,2.05
2022-09-02T21:46:20.723Z,2.38
2022-09-02T21:49:15.932Z,2.00
2022-09-02T21:51:52.138Z,2.20
2022-09-02T21:54:40.671Z,1.80
2022-09-02T21:57:23.128Z,2.30
2022-09-02T22:00:02.802Z,2.10
2022-09-02T22:03:04.061Z,2.17
2022-09-02T22:06:09.484Z,2.30
2022-09-02T22:08:44.671Z,2.05
2022-09-02T22:11:37.256Z,1.83
2022-09-02T22:14:23.862Z,2.35
2022-09-02T22:17:01.768Z,1.83
2022-09-02T22:19:34.224Z,2.50
2022-09-02T22:22:12.187Z,2.53
2022-09-02T22:24:40.482Z,2.33
2022-09-02T22:27:35.337Z,2.58
2022-09-02T22:30:14.860Z,2.20
2022-09-02T22:32:49.483Z,2.10
2022-09-02T22:35:58.542Z,1.95
2022-09-02T22:38:31.196Z,2.00
2022-09-02T22:41:12.274Z,2.03
2022-09-02T22:43:56.679Z,2.30
2022-09-02T22:46:59.197Z,2.10
2022-09-02T22:49:48.542Z,2.45
2022-09-02T22:52:50.500Z,2.20
2022-09-02T22:55:54.465Z,2.40
2022-09-02T22:58:39.750Z,2.33
2022-09-02T23:01:55.952Z,2.65
2022-09-02T23:04:59.938Z,2.40
2022-09-02T23:07:26.763Z,2.30
2022-09-02T23:09:59.010Z,2.22
2022-09-02T23:12:44.925Z,2.20
2022-09-02T23:15:37.029Z,2.38
2022-09-02T23:18:28.392Z,2.53
2022-09-02T23:21:22.522Z,2.15
2022-09-02T23:24:03.186Z,2.28
2022-09-02T23:26:58.120Z,2.20
2022-09-02T23:29:28.657Z,2.53
2022-09-02T23:32:26.093Z,2.40
2022-09-02T23:35:11.317Z,2.08
2022-09-02T23:38:22.824Z,2.45
2022-09-02T23:41:11.964Z,2.63
2022-09-02T23:43:39.486Z,2.42
2022-09-02T23:46:18.108Z,2.20
2022-09-02T23:49:14.882Z,2.38
2022-09-02T23:52:21.234Z,2.28
2022-09-02T23:55:00.037Z,2.45
2022-09-02T23:57:46.385Z,2.58
